createdAt,value
2019-02-24T00:00:44.419Z,12.60
2019-02-24T00:03:11.651Z,15.93
2019-02-24T00:05:39.089Z,13.03
2019-02-24T00:08:06.443Z,14.10
2019-02-24T00:10:33.702Z,14.93
2019-02-24T00:13:00.941Z,15.33
2019-02-24T00:15:28.234Z,12.20
2019-02-24T00:17:55.562Z,13.20
2019-02-24T00:20:22.801Z,14.73
2019-02-24T00:22:50.109Z,15.63
2019-02-24T00:25:17.366Z,13.83
2019-02-24T00:27:44.611Z,18.80
2019-02-24T00:30:11.866Z,16.30
2019-02-24T00:32:39.093Z,14.47
2019-02-24T00:35:06.390Z,14.37
2019-02-24T00:37:33.803Z,12.40
2019-02-24T00:40:01.055Z,23.80
2019-02-24T00:42:28.316Z,14.97
2019-02-24T00:44:55.584Z,17.10
2019-02-24T00:47:22.859Z,16.53
2019-02-24T00:49:50.110Z,13.20
2019-02-24T00:52:17.437Z,14.37
2019-02-24T00:54:44.760Z,14.60
2019-02-24T00:57:12.023Z,15.90
2019-02-24T00:59:39.252Z,13.50
2019-02-24T01:02:06.531Z,14.57
2019-02-24T01:04:33.778Z,11.00
2019-02-24T01:07:01.039Z,13.40
2019-02-24T01:09:28.297Z,12.67
2019-02-24T01:11:55.561Z,13.40
2019-02-24T01:14:22.827Z,12.33
2019-02-24T01:16:50.434Z,12.63
2019-02-24T01:19:17.690Z,17.43
2019-02-24T01:21:45.001Z,19.77
2019-02-24T01:24:12.256Z,19.67
2019-02-24T01:26:39.535Z,19.03
2019-02-24T01:29:06.872Z,17.60
2019-02-24T01:31:34.168Z,16.40
2019-02-24T01:34:02.441Z,14.67
2019-02-24T01:36:30.148Z,15.67
2019-02-24T01:38:57.771Z,17.07
2019-02-24T01:41:25.469Z,18.30
2019-02-24T01:43:56.309Z,15.20
2019-02-24T01:46:24.048Z,18.47
2019-02-24T01:48:51.356Z,16.33
2019-02-24T01:51:18.624Z,18.93
2019-02-24T01:53:45.908Z,18.80
2019-02-24T01:56:13.212Z,15.90
2019-02-24T01:58:40.552Z,16.17
2019-02-24T02:01:13.786Z,16.40
2019-02-24T02:03:41.047Z,16.53
2019-02-24T02:06:08.319Z,16.33
2019-02-24T02:08:35.623Z,14.37
2019-02-24T02:11:02.959Z,19.03
2019-02-24T02:13:30.243Z,13.00
2019-02-24T02:15:57.475Z,19.20
2019-02-24T02:18:24.816Z,21.30
2019-02-24T02:20:52.339Z,43.30
2019-02-24T02:23:19.560Z,75.87
2019-02-24T02:25:46.818Z,80.67
2019-02-24T02:28:14.118Z,55.80
2019-02-24T02:30:41.367Z,55.50
2019-02-24T02:33:09.014Z,38.10
2019-02-24T02:35:36.268Z,33.47
2019-02-24T02:38:03.726Z,19.47
2019-02-24T02:40:31.040Z,22.33
2019-02-24T02:42:58.326Z,20.20
2019-02-24T02:45:25.559Z,20.43
2019-02-24T02:47:52.803Z,15.10
2019-02-24T02:50:20.068Z,15.50
2019-02-24T02:52:47.341Z,16.97
2019-02-24T02:55:14.583Z,15.80
2019-02-24T02:57:41.900Z,12.67
2019-02-24T03:00:25.959Z,14.20
2019-02-24T03:02:53.237Z,15.23
2019-02-24T03:05:20.462Z,16.00
2019-02-24T03:07:53.887Z,12.53
2019-02-24T03:10:21.136Z,13.53
2019-02-24T03:12:48.420Z,12.53
2019-02-24T03:15:15.699Z,13.30
2019-02-24T03:17:42.980Z,18.43
2019-02-24T03:20:10.208Z,14.50
2019-02-24T03:22:37.491Z,14.27
2019-02-24T03:25:04.888Z,16.27
2019-02-24T03:27:32.131Z,14.90
2019-02-24T03:29:59.434Z,15.93
2019-02-24T03:32:26.660Z,16.43
2019-02-24T03:34:53.952Z,15.67
2019-02-24T03:37:21.182Z,23.00
2019-02-24T03:39:48.528Z,17.37
2019-02-24T03:42:17.584Z,68.20
2019-02-24T03:44:44.976Z,43.13
2019-02-24T03:47:12.275Z,28.87
2019-02-24T03:49:39.692Z,23.97
2019-02-24T03:52:08.092Z,28.00
2019-02-24T03:54:35.363Z,19.93
2019-02-24T03:57:02.724Z,18.73
2019-02-24T03:59:30.032Z,19.80
2019-02-24T04:01:57.275Z,19.30
2019-02-24T04:04:24.530Z,18.23
2019-02-24T04:06:51.791Z,16.97
2019-02-24T04:09:19.061Z,16.63
2019-02-24T04:11:46.392Z,20.07
2019-02-24T04:14:13.651Z,15.07
2019-02-24T04:16:40.916Z,19.10
2019-02-24T04:19:08.174Z,19.07
2019-02-24T04:21:35.496Z,17.40
2019-02-24T04:24:02.781Z,18.10
2019-02-24T04:26:30.036Z,18.67
2019-02-24T04:28:57.323Z,15.83
2019-02-24T04:31:24.560Z,23.13
2019-02-24T04:33:51.825Z,14.97
2019-02-24T04:36:19.072Z,15.20
2019-02-24T04:38:46.313Z,14.83
2019-02-24T04:41:13.585Z,13.40
2019-02-24T04:43:40.961Z,17.73
2019-02-24T04:46:08.237Z,14.57
2019-02-24T04:48:35.444Z,14.00
2019-02-24T04:51:02.739Z,16.73
2019-02-24T04:53:30.044Z,17.33
2019-02-24T04:55:57.327Z,15.67
2019-02-24T04:58:24.571Z,18.07
2019-02-24T05:00:51.809Z,12.50
2019-02-24T05:03:19.097Z,15.17
2019-02-24T05:05:46.441Z,15.10
2019-02-24T05:08:13.751Z,15.43
2019-02-24T05:10:40.991Z,16.37
2019-02-24T05:13:08.231Z,17.57
2019-02-24T05:15:35.506Z,19.33
2019-02-24T05:18:02.811Z,38.03
2019-02-24T05:20:30.067Z,15.43
2019-02-24T05:22:57.315Z,13.40
2019-02-24T05:25:24.558Z,15.00
2019-02-24T05:27:51.790Z,15.93
2019-02-24T05:30:19.048Z,15.80
2019-02-24T05:32:46.303Z,15.50
2019-02-24T05:35:13.606Z,16.23
2019-02-24T05:37:40.936Z,15.97
2019-02-24T05:40:08.289Z,16.17
2019-02-24T05:42:35.536Z,13.70
2019-02-24T05:45:02.869Z,14.93
2019-02-24T05:47:30.635Z,14.40
2019-02-24T05:49:57.863Z,15.77
2019-02-24T05:52:25.093Z,13.67
2019-02-24T05:54:52.347Z,14.20
2019-02-24T05:57:19.949Z,11.63
2019-02-24T05:59:54.915Z,15.13
2019-02-24T06:02:16.363Z,16.63
2019-02-24T06:04:43.677Z,15.43
2019-02-24T06:07:10.931Z,16.03
2019-02-24T06:09:38.181Z,13.00
2019-02-24T06:12:05.408Z,11.93
2019-02-24T06:14:32.651Z,12.17
2019-02-24T06:16:59.924Z,14.83
2019-02-24T06:19:27.183Z,14.50
2019-02-24T06:21:54.452Z,12.90
2019-02-24T06:24:21.692Z,12.03
2019-02-24T06:26:48.996Z,12.63
2019-02-24T06:29:16.298Z,12.77
2019-02-24T06:31:43.543Z,11.67
2019-02-24T06:34:10.835Z,12.77
2019-02-24T06:36:38.102Z,11.87
2019-02-24T06:39:07.104Z,12.80
2019-02-24T06:41:34.472Z,13.47
2019-02-24T06:44:04.964Z,12.73
2019-02-24T06:46:32.227Z,16.97
2019-02-24T06:48:59.515Z,11.73
2019-02-24T06:51:26.737Z,18.53
2019-02-24T06:53:54.012Z,26.97
2019-02-24T06:56:21.365Z,14.57
2019-02-24T06:58:48.688Z,12.97
2019-02-24T07:01:16.010Z,8.33
2019-02-24T07:03:43.321Z,10.87
2019-02-24T07:06:10.687Z,9.20
2019-02-24T07:08:37.996Z,14.03
2019-02-24T07:11:05.261Z,11.13
2019-02-24T07:13:32.481Z,10.53
2019-02-24T07:16:00.019Z,14.67
2019-02-24T07:18:27.284Z,10.93
2019-02-24T07:20:54.544Z,12.47
2019-02-24T07:23:21.906Z,16.60
2019-02-24T07:25:49.154Z,10.67
2019-02-24T07:28:16.419Z,9.17
2019-02-24T07:30:43.689Z,11.73
2019-02-24T07:33:12.428Z,8.93
2019-02-24T07:35:40.040Z,10.33
2019-02-24T07:38:07.371Z,8.80
2019-02-24T07:40:34.618Z,7.67
2019-02-24T07:43:01.901Z,9.17
2019-02-24T07:45:29.275Z,10.93
2019-02-24T07:47:56.628Z,9.60
2019-02-24T07:50:23.973Z,15.53
2019-02-24T07:52:52.084Z,10.03
2019-02-24T07:55:19.426Z,8.90
2019-02-24T07:57:46.923Z,11.77
2019-02-24T08:00:14.175Z,9.70
2019-02-24T08:02:44.178Z,9.67
2019-02-24T08:05:11.636Z,7.03
2019-02-24T08:07:40.895Z,7.97
2019-02-24T08:10:08.223Z,11.53
2019-02-24T08:12:35.599Z,9.63
2019-02-24T08:15:03.425Z,7.97
2019-02-24T08:17:30.723Z,6.47
2019-02-24T08:19:58.192Z,9.13
2019-02-24T08:22:25.536Z,8.27
2019-02-24T08:24:52.809Z,8.57
2019-02-24T08:27:23.394Z,10.37
2019-02-24T08:29:51.058Z,8.07
2019-02-24T08:32:18.410Z,10.70
2019-02-24T08:34:45.827Z,8.27
2019-02-24T08:37:13.190Z,6.10
2019-02-24T08:39:40.460Z,5.93
2019-02-24T08:42:07.698Z,9.90
2019-02-24T08:44:35.062Z,12.07
2019-02-24T08:47:06.055Z,6.30
2019-02-24T08:49:33.367Z,5.87
2019-02-24T08:52:00.650Z,6.23
2019-02-24T08:54:28.037Z,5.73
2019-02-24T08:56:55.765Z,8.33
2019-02-24T08:59:26.131Z,6.30
2019-02-24T09:01:56.005Z,8.93
2019-02-24T09:04:23.615Z,8.17
2019-02-24T09:06:51.067Z,5.17
2019-02-24T09:09:18.427Z,6.37
2019-02-24T09:11:46.335Z,39.60
2019-02-24T09:14:28.804Z,153.23
2019-02-24T09:16:56.123Z,11.13
2019-02-24T09:19:23.973Z,7.60
2019-02-24T09:21:54.788Z,6.63
2019-02-24T09:24:37.975Z,8.20
2019-02-24T09:27:05.385Z,6.10
2019-02-24T09:29:37.270Z,17.77
2019-02-24T09:32:04.506Z,7.50
2019-02-24T09:34:31.792Z,7.23
2019-02-24T09:36:59.433Z,5.90
2019-02-24T09:39:26.712Z,7.23
2019-02-24T09:41:54.114Z,4.43
2019-02-24T09:44:30.170Z,8.37
2019-02-24T09:47:00.000Z,7.57
2019-02-24T09:49:28.310Z,8.50
2019-02-24T09:51:55.654Z,7.00
2019-02-24T09:54:25.025Z,6.20
2019-02-24T09:56:54.439Z,8.13
2019-02-24T09:59:30.754Z,4.07
2019-02-24T10:01:58.031Z,9.43
2019-02-24T10:04:25.271Z,4.83
2019-02-24T10:06:52.620Z,5.60
2019-02-24T10:09:19.910Z,7.77
2019-02-24T10:11:47.172Z,6.73
2019-02-24T10:14:14.415Z,5.90
2019-02-24T10:16:41.810Z,6.73
2019-02-24T10:19:09.105Z,5.80
2019-02-24T10:21:36.406Z,6.17
2019-02-24T10:24:03.683Z,7.50
2019-02-24T10:26:34.234Z,8.37
2019-02-24T10:29:01.812Z,5.80
2019-02-24T10:31:29.726Z,5.93
2019-02-24T10:34:01.482Z,5.10
2019-02-24T10:36:29.334Z,5.93
2019-02-24T10:38:57.117Z,5.20
2019-02-24T10:41:28.715Z,6.33
2019-02-24T10:44:00.383Z,5.50
2019-02-24T10:49:18.714Z,4.97
2019-02-24T10:51:47.395Z,4.73
2019-02-24T10:54:16.691Z,5.57
2019-02-24T10:56:49.349Z,170.33
2019-02-24T10:59:23.093Z,45.23
2019-02-24T11:01:54.441Z,7.73
2019-02-24T11:04:26.185Z,6.20
2019-02-24T11:06:55.715Z,5.20
2019-02-24T11:09:31.794Z,7.63
2019-02-24T11:12:19.857Z,4.83
2019-02-24T11:14:50.654Z,5.55
2019-02-24T11:17:18.268Z,5.42
2019-02-24T11:19:46.567Z,6.28
2019-02-24T11:22:17.452Z,4.80
2019-02-24T11:24:48.835Z,4.83
2019-02-24T11:27:16.167Z,4.20
2019-02-24T11:29:43.849Z,3.95
2019-02-24T11:32:11.221Z,3.92
2019-02-24T11:34:38.596Z,3.42
2019-02-24T11:37:06.051Z,5.35
2019-02-24T11:39:33.363Z,6.60
2019-02-24T11:42:00.840Z,4.62
2019-02-24T11:44:28.263Z,5.20
2019-02-24T11:47:04.651Z,5.05
2019-02-24T11:49:31.967Z,4.53
2019-02-24T11:55:09.108Z,3.85
2019-02-24T11:57:38.111Z,4.60
2019-02-24T12:00:08.597Z,4.67
2019-02-24T12:02:37.923Z,4.25
2019-02-24T12:05:08.513Z,4.05
2019-02-24T12:07:38.168Z,4.40
2019-02-24T12:10:07.573Z,4.75
2019-02-24T12:12:35.196Z,3.50
2019-02-24T12:15:03.178Z,4.17
2019-02-24T12:17:37.281Z,3.37
2019-02-24T12:20:07.539Z,4.87
2019-02-24T12:22:37.617Z,3.42
2019-02-24T12:25:07.016Z,3.27
2019-02-24T12:27:55.880Z,3.58
2019-02-24T12:30:23.508Z,3.40
2019-02-24T12:32:51.641Z,3.98
2019-02-24T12:35:19.745Z,7.17
2019-02-24T12:37:47.700Z,3.33
2019-02-24T12:40:15.901Z,3.00
2019-02-24T12:42:46.190Z,4.22
2019-02-24T12:45:19.497Z,3.12
2019-02-24T12:47:51.295Z,3.72
2019-02-24T12:50:30.837Z,3.70
2019-02-24T12:53:10.868Z,3.30
2019-02-24T12:55:41.671Z,4.22
2019-02-24T12:58:16.097Z,4.35
2019-02-24T13:00:46.340Z,3.50
2019-02-24T13:03:13.712Z,3.98
2019-02-24T13:05:45.498Z,3.15
2019-02-24T13:08:13.914Z,2.80
2019-02-24T13:10:43.797Z,3.50
2019-02-24T13:13:11.750Z,3.72
2019-02-24T13:15:41.358Z,3.50
2019-02-24T13:18:09.899Z,3.20
2019-02-24T13:20:37.927Z,2.75
2019-02-24T13:23:05.537Z,3.52
2019-02-24T13:25:33.507Z,3.10
2019-02-24T13:28:01.552Z,4.05
2019-02-24T13:30:29.679Z,2.85
2019-02-24T13:32:57.052Z,4.83
2019-02-24T13:35:25.368Z,5.75
2019-02-24T13:37:52.717Z,7.95
2019-02-24T13:40:20.926Z,3.47
2019-02-24T13:42:48.207Z,3.08
2019-02-24T13:45:15.607Z,3.27
2019-02-24T13:47:42.891Z,3.87
2019-02-24T13:50:10.160Z,5.03
2019-02-24T13:52:38.745Z,3.50
2019-02-24T13:55:09.767Z,6.60
2019-02-24T13:57:37.319Z,6.58
2019-02-24T14:00:06.006Z,3.70
2019-02-24T14:02:33.290Z,14.25
2019-02-24T14:05:00.535Z,11.63
2019-02-24T14:07:27.811Z,3.17
2019-02-24T14:09:55.146Z,5.60
2019-02-24T14:12:22.496Z,3.98
2019-02-24T14:14:49.823Z,2.80
2019-02-24T14:17:17.130Z,2.80
2019-02-24T14:19:44.430Z,3.62
2019-02-24T14:22:11.952Z,2.87
2019-02-24T14:24:39.306Z,3.83
2019-02-24T14:27:06.728Z,6.85
2019-02-24T14:29:36.107Z,3.45
2019-02-24T14:32:03.591Z,3.33
2019-02-24T14:34:30.819Z,2.80
2019-02-24T14:36:59.506Z,3.22
2019-02-24T14:39:26.951Z,2.98
2019-02-24T14:41:54.475Z,3.17
2019-02-24T14:44:21.790Z,4.37
2019-02-24T14:46:49.175Z,2.93
2019-02-24T14:49:17.160Z,4.67
2019-02-24T14:51:44.474Z,4.70
2019-02-24T14:54:11.714Z,6.67
2019-02-24T14:56:40.062Z,5.23
2019-02-24T14:59:07.437Z,3.40
2019-02-24T15:01:35.135Z,6.00
2019-02-24T15:04:05.519Z,11.33
2019-02-24T15:06:32.828Z,15.97
2019-02-24T15:09:00.064Z,10.20
2019-02-24T15:11:28.150Z,9.13
2019-02-24T15:16:45.414Z,9.20
2019-02-24T15:19:16.855Z,11.63
2019-02-24T15:21:45.110Z,8.30
2019-02-24T15:24:13.493Z,5.37
2019-02-24T15:26:40.864Z,7.27
2019-02-24T15:29:09.206Z,13.97
2019-02-24T15:31:37.086Z,8.77
2019-02-24T15:34:06.239Z,6.10
2019-02-24T15:36:34.292Z,8.00
2019-02-24T15:39:01.638Z,7.90
2019-02-24T15:41:29.948Z,4.37
2019-02-24T15:43:57.498Z,5.60
2019-02-24T15:46:26.755Z,4.10
2019-02-24T15:48:54.001Z,12.00
2019-02-24T15:51:21.295Z,6.30
2019-02-24T15:53:48.615Z,3.13
2019-02-24T15:56:15.910Z,3.20
2019-02-24T15:58:43.164Z,3.60
2019-02-24T16:01:10.482Z,6.00
2019-02-24T16:03:41.302Z,4.03
2019-02-24T16:06:09.343Z,3.93
2019-02-24T16:08:36.661Z,7.27
2019-02-24T16:11:04.431Z,6.73
2019-02-24T16:13:31.906Z,3.53
2019-02-24T16:15:59.288Z,4.90
2019-02-24T16:18:26.535Z,5.30
2019-02-24T16:20:54.039Z,5.23
2019-02-24T16:23:21.292Z,4.43
2019-02-24T16:25:48.692Z,4.67
2019-02-24T16:28:16.046Z,6.93
2019-02-24T16:30:43.324Z,5.40
2019-02-24T16:33:10.983Z,5.93
2019-02-24T16:35:38.356Z,7.57
2019-02-24T16:38:05.633Z,5.97
2019-02-24T16:40:32.949Z,5.30
2019-02-24T16:43:00.231Z,4.20
2019-02-24T16:45:29.873Z,5.03
2019-02-24T16:47:57.251Z,4.37
2019-02-24T16:50:24.631Z,4.73
2019-02-24T16:52:51.906Z,4.27
2019-02-24T16:55:22.438Z,6.73
2019-02-24T16:57:49.683Z,4.90
2019-02-24T17:00:18.673Z,6.20
2019-02-24T17:02:45.992Z,8.90
2019-02-24T17:05:13.500Z,9.63
2019-02-24T17:07:40.840Z,12.33
2019-02-24T17:10:09.395Z,11.17
2019-02-24T17:12:36.631Z,156.77
2019-02-24T17:15:04.082Z,229.33
2019-02-24T17:17:31.357Z,110.83
2019-02-24T17:19:58.616Z,81.70
2019-02-24T17:22:26.183Z,83.47
2019-02-24T17:24:54.702Z,73.83
2019-02-24T17:27:21.973Z,39.63
2019-02-24T17:29:49.270Z,42.37
2019-02-24T17:32:16.535Z,53.97
2019-02-24T17:34:43.931Z,67.73
2019-02-24T17:37:19.673Z,62.10
2019-02-24T17:39:40.507Z,27.43
2019-02-24T17:42:07.789Z,21.57
2019-02-24T17:44:35.056Z,22.93
2019-02-24T17:47:02.320Z,19.13
2019-02-24T17:49:29.655Z,35.90
2019-02-24T17:51:57.012Z,29.50
2019-02-24T17:54:24.429Z,46.20
2019-02-24T17:56:51.716Z,31.70
2019-02-24T17:59:19.054Z,30.70
2019-02-24T18:01:46.390Z,22.57
2019-02-24T18:04:13.620Z,26.77
2019-02-24T18:06:40.913Z,25.50
2019-02-24T18:09:08.182Z,27.53
2019-02-24T18:11:35.431Z,34.80
2019-02-24T18:14:02.699Z,35.87
2019-02-24T18:16:29.960Z,31.30
2019-02-24T18:18:57.279Z,18.07
2019-02-24T18:21:24.580Z,15.10
2019-02-24T18:23:51.823Z,11.30
2019-02-24T18:26:19.063Z,8.60
2019-02-24T18:28:46.336Z,12.53
2019-02-24T18:31:13.614Z,5.80
2019-02-24T18:33:48.125Z,9.73
2019-02-24T18:36:10.061Z,7.03
2019-02-24T18:38:37.316Z,8.17
2019-02-24T18:41:04.639Z,6.73
2019-02-24T18:43:31.991Z,9.53
2019-02-24T18:45:59.300Z,7.03
2019-02-24T18:48:26.548Z,6.83
2019-02-24T18:50:53.796Z,8.33
2019-02-24T18:53:21.471Z,10.80
2019-02-24T18:55:48.794Z,9.30
2019-02-24T18:58:16.131Z,10.47
2019-02-24T19:00:43.489Z,7.60
2019-02-24T19:03:10.820Z,12.53
2019-02-24T19:05:38.239Z,10.00
2019-02-24T19:08:05.606Z,8.33
2019-02-24T19:10:32.852Z,6.83
2019-02-24T19:13:00.120Z,8.97
2019-02-24T19:15:27.376Z,8.70
2019-02-24T19:17:54.685Z,9.67
2019-02-24T19:20:21.922Z,8.87
2019-02-24T19:22:49.201Z,10.43
2019-02-24T19:25:16.568Z,10.47
2019-02-24T19:27:44.059Z,43.37
2019-02-24T19:30:12.583Z,94.67
2019-02-24T19:32:39.829Z,83.67
2019-02-24T19:35:07.946Z,65.50
2019-02-24T19:37:35.166Z,77.67
2019-02-24T19:40:02.491Z,60.47
2019-02-24T19:42:29.753Z,44.57
2019-02-24T19:44:57.271Z,53.03
2019-02-24T19:47:24.563Z,67.17
2019-02-24T19:49:51.820Z,69.43
2019-02-24T19:52:19.104Z,48.63
2019-02-24T19:54:46.370Z,20.20
2019-02-24T19:57:13.776Z,13.63
2019-02-24T19:59:41.081Z,14.03
2019-02-24T20:02:08.364Z,18.63
2019-02-24T20:04:35.603Z,15.60
2019-02-24T20:07:02.967Z,14.70
2019-02-24T20:09:35.172Z,15.47
2019-02-24T20:12:02.852Z,10.97
2019-02-24T20:14:30.165Z,12.53
2019-02-24T20:16:57.417Z,10.50
2019-02-24T20:19:24.848Z,12.57
2019-02-24T20:21:52.172Z,11.80
2019-02-24T20:24:19.429Z,14.30
2019-02-24T20:26:46.680Z,11.43
2019-02-24T20:29:14.432Z,15.03
2019-02-24T20:31:41.773Z,15.97
2019-02-24T20:34:09.111Z,19.57
2019-02-24T20:36:36.420Z,14.17
2019-02-24T20:39:05.563Z,17.43
2019-02-24T20:41:32.836Z,14.97
2019-02-24T20:44:00.456Z,17.57
2019-02-24T20:46:27.861Z,20.07
2019-02-24T20:48:55.136Z,16.67
2019-02-24T20:51:22.407Z,22.77
2019-02-24T20:53:49.670Z,17.63
2019-02-24T20:56:16.921Z,18.00
2019-02-24T20:58:44.176Z,19.00
2019-02-24T21:01:11.444Z,22.57
2019-02-24T21:03:39.041Z,14.77
2019-02-24T21:06:06.306Z,13.50
2019-02-24T21:08:33.640Z,14.07
2019-02-24T21:11:00.911Z,16.77
2019-02-24T21:13:28.163Z,16.73
2019-02-24T21:15:55.583Z,20.30
2019-02-24T21:18:25.399Z,15.13
2019-02-24T21:20:52.712Z,16.70
2019-02-24T21:23:19.979Z,12.90
2019-02-24T21:25:49.533Z,16.63
2019-02-24T21:28:17.204Z,16.23
2019-02-24T21:30:44.499Z,13.27
2019-02-24T21:33:11.802Z,14.37
2019-02-24T21:35:39.197Z,9.63
2019-02-24T21:38:06.635Z,15.67
2019-02-24T21:40:34.245Z,14.30
2019-02-24T21:43:01.511Z,18.03
2019-02-24T21:45:29.997Z,14.03
2019-02-24T21:47:57.281Z,17.57
2019-02-24T21:50:24.563Z,16.57
2019-02-24T21:52:51.886Z,13.93
2019-02-24T21:55:19.180Z,10.13
2019-02-24T21:57:46.551Z,11.37
2019-02-24T22:00:16.637Z,12.17
2019-02-24T22:02:43.927Z,11.40
2019-02-24T22:05:11.287Z,8.90
2019-02-24T22:07:38.515Z,9.17
2019-02-24T22:10:06.744Z,10.00
2019-02-24T22:12:34.095Z,6.90
2019-02-24T22:15:01.324Z,7.30
2019-02-24T22:17:28.596Z,8.73
2019-02-24T22:19:55.885Z,8.60
2019-02-24T22:22:23.203Z,5.33
2019-02-24T22:24:50.467Z,11.33
2019-02-24T22:27:17.745Z,6.23
2019-02-24T22:29:45.033Z,10.07
2019-02-24T22:32:12.296Z,15.03
2019-02-24T22:34:39.684Z,10.50
2019-02-24T22:37:06.978Z,8.73
2019-02-24T22:39:34.215Z,13.10
2019-02-24T22:42:01.492Z,22.93
2019-02-24T22:44:28.815Z,24.83
2019-02-24T22:46:56.082Z,54.20
2019-02-24T22:49:23.350Z,62.40
2019-02-24T22:51:50.591Z,70.10
2019-02-24T22:54:17.835Z,65.50
2019-02-24T22:56:45.110Z,68.60
2019-02-24T22:59:12.373Z,61.83
2019-02-24T23:01:40.940Z,63.50
2019-02-24T23:04:10.563Z,72.07
2019-02-24T23:06:37.800Z,95.03
2019-02-24T23:09:09.784Z,57.30
2019-02-24T23:11:37.076Z,49.30
2019-02-24T23:14:05.135Z,42.17
2019-02-24T23:16:32.399Z,38.17
2019-02-24T23:18:59.627Z,29.27
2019-02-24T23:21:26.887Z,32.00
2019-02-24T23:23:54.535Z,19.00
2019-02-24T23:26:23.980Z,20.07
2019-02-24T23:28:51.593Z,8.90
2019-02-24T23:31:19.548Z,21.77
2019-02-24T23:33:47.293Z,12.53
2019-02-24T23:36:16.493Z,10.93
2019-02-24T23:38:43.804Z,11.30
2019-02-24T23:41:11.088Z,8.97
2019-02-24T23:43:38.341Z,7.20
2019-02-24T23:46:05.722Z,11.03
2019-02-24T23:48:32.991Z,8.23
2019-02-24T23:51:00.244Z,9.23
2019-02-24T23:53:27.619Z,7.67
2019-02-24T23:55:54.867Z,6.50
2019-02-24T23:58:22.139Z,8.37
